sensor_id;sensor_type;location;lat;lon;timestamp;P1;durP1;ratioP1;P2;durP2;ratioP2
56391;SDS011;42289;53.582;9.714;2022-12-19T00:00:59;26.02;;;10.02;;
56391;SDS011;42289;53.582;9.714;2022-12-19T00:03:28;24.38;;;10.40;;
56391;SDS011;42289;53.582;9.714;2022-12-19T00:05:54;23.90;;;10.38;;
56391;SDS011;42289;53.582;9.714;2022-12-19T00:08:22;24.02;;;9.80;;
56391;SDS011;42289;53.582;9.714;2022-12-19T00:10:53;22.05;;;10.23;;
56391;SDS011;42289;53.582;9.714;2022-12-19T00:13:20;23.38;;;9.98;;
56391;SDS011;42289;53.582;9.714;2022-12-19T00:15:46;23.25;;;9.68;;
56391;SDS011;42289;53.582;9.714;2022-12-19T00:18:13;19.00;;;8.88;;
56391;SDS011;42289;53.582;9.714;2022-12-19T00:20:40;20.23;;;9.32;;
56391;SDS011;42289;53.582;9.714;2022-12-19T00:23:07;20.30;;;9.38;;
56391;SDS011;42289;53.582;9.714;2022-12-19T00:25:34;23.92;;;9.43;;
56391;SDS011;42289;53.582;9.714;2022-12-19T00:28:03;18.15;;;9.02;;
56391;SDS011;42289;53.582;9.714;2022-12-19T00:30:29;19.48;;;8.60;;
56391;SDS011;42289;53.582;9.714;2022-12-19T00:32:56;23.45;;;9.52;;
56391;SDS011;42289;53.582;9.714;2022-12-19T00:35:23;20.38;;;9.48;;
56391;SDS011;42289;53.582;9.714;2022-12-19T00:37:51;20.25;;;9.75;;
56391;SDS011;42289;53.582;9.714;2022-12-19T00:40:17;21.75;;;10.27;;
56391;SDS011;42289;53.582;9.714;2022-12-19T00:42:44;24.70;;;10.30;;
56391;SDS011;42289;53.582;9.714;2022-12-19T00:45:10;26.83;;;10.07;;
56391;SDS011;42289;53.582;9.714;2022-12-19T00:47:36;22.73;;;10.07;;
56391;SDS011;42289;53.582;9.714;2022-12-19T00:50:03;24.17;;;11.02;;
56391;SDS011;42289;53.582;9.714;2022-12-19T00:52:30;21.85;;;9.75;;
56391;SDS011;42289;53.582;9.714;2022-12-19T00:54:57;22.65;;;9.88;;
56391;SDS011;42289;53.582;9.714;2022-12-19T00:57:24;27.52;;;10.77;;
56391;SDS011;42289;53.582;9.714;2022-12-19T00:59:50;24.05;;;10.63;;
56391;SDS011;42289;53.582;9.714;2022-12-19T01:02:17;20.50;;;9.32;;
56391;SDS011;42289;53.582;9.714;2022-12-19T01:04:43;23.77;;;10.75;;
56391;SDS011;42289;53.582;9.714;2022-12-19T01:07:09;24.20;;;10.13;;
56391;SDS011;42289;53.582;9.714;2022-12-19T01:09:36;25.30;;;10.32;;
56391;SDS011;42289;53.582;9.714;2022-12-19T01:12:05;28.02;;;9.95;;
56391;SDS011;42289;53.582;9.714;2022-12-19T01:14:50;21.42;;;9.88;;
56391;SDS011;42289;53.582;9.714;2022-12-19T01:17:17;21.65;;;9.80;;
56391;SDS011;42289;53.582;9.714;2022-12-19T01:19:44;21.55;;;9.80;;
56391;SDS011;42289;53.582;9.714;2022-12-19T01:22:10;22.73;;;10.57;;
56391;SDS011;42289;53.582;9.714;2022-12-19T01:24:37;21.98;;;10.50;;
56391;SDS011;42289;53.582;9.714;2022-12-19T01:27:05;24.50;;;10.25;;
56391;SDS011;42289;53.582;9.714;2022-12-19T01:29:31;21.63;;;9.85;;
56391;SDS011;42289;53.582;9.714;2022-12-19T01:31:58;21.00;;;9.50;;
56391;SDS011;42289;53.582;9.714;2022-12-19T01:34:24;26.13;;;11.32;;
56391;SDS011;42289;53.582;9.714;2022-12-19T01:36:51;25.30;;;10.52;;
56391;SDS011;42289;53.582;9.714;2022-12-19T01:39:17;24.30;;;9.57;;
56391;SDS011;42289;53.582;9.714;2022-12-19T01:41:43;23.58;;;10.63;;
56391;SDS011;42289;53.582;9.714;2022-12-19T01:44:11;22.25;;;9.80;;
56391;SDS011;42289;53.582;9.714;2022-12-19T01:46:39;20.02;;;8.73;;
56391;SDS011;42289;53.582;9.714;2022-12-19T01:49:09;24.23;;;10.10;;
56391;SDS011;42289;53.582;9.714;2022-12-19T01:51:42;23.47;;;10.17;;
56391;SDS011;42289;53.582;9.714;2022-12-19T01:54:12;22.05;;;9.13;;
56391;SDS011;42289;53.582;9.714;2022-12-19T01:56:44;21.85;;;9.57;;
56391;SDS011;42289;53.582;9.714;2022-12-19T01:59:16;23.45;;;10.35;;
56391;SDS011;42289;53.582;9.714;2022-12-19T02:01:45;23.75;;;9.63;;
56391;SDS011;42289;53.582;9.714;2022-12-19T02:04:12;20.27;;;9.38;;
56391;SDS011;42289;53.582;9.714;2022-12-19T02:06:39;23.65;;;9.05;;
56391;SDS011;42289;53.582;9.714;2022-12-19T02:09:07;23.25;;;10.85;;
56391;SDS011;42289;53.582;9.714;2022-12-19T02:11:34;21.95;;;9.77;;
56391;SDS011;42289;53.582;9.714;2022-12-19T02:14:01;21.13;;;9.82;;
56391;SDS011;42289;53.582;9.714;2022-12-19T02:16:31;24.40;;;10.73;;
56391;SDS011;42289;53.582;9.714;2022-12-19T02:19:09;21.73;;;10.00;;
56391;SDS011;42289;53.582;9.714;2022-12-19T02:21:56;23.63;;;9.43;;
56391;SDS011;42289;53.582;9.714;2022-12-19T02:24:37;24.10;;;10.00;;
56391;SDS011;42289;53.582;9.714;2022-12-19T02:27:41;23.65;;;9.75;;
56391;SDS011;42289;53.582;9.714;2022-12-19T02:30:37;26.02;;;10.68;;
56391;SDS011;42289;53.582;9.714;2022-12-19T02:33:12;25.52;;;10.07;;
56391;SDS011;42289;53.582;9.714;2022-12-19T02:35:43;23.85;;;10.02;;
56391;SDS011;42289;53.582;9.714;2022-12-19T02:38:16;21.05;;;10.27;;
56391;SDS011;42289;53.582;9.714;2022-12-19T02:40:48;22.83;;;10.30;;
56391;SDS011;42289;53.582;9.714;2022-12-19T02:43:20;22.58;;;10.57;;
56391;SDS011;42289;53.582;9.714;2022-12-19T02:45:50;22.85;;;10.57;;
56391;SDS011;42289;53.582;9.714;2022-12-19T02:48:17;24.23;;;10.32;;
56391;SDS011;42289;53.582;9.714;2022-12-19T02:50:45;23.83;;;10.85;;
56391;SDS011;42289;53.582;9.714;2022-12-19T02:53:13;27.08;;;10.93;;
56391;SDS011;42289;53.582;9.714;2022-12-19T02:55:42;22.80;;;10.73;;
56391;SDS011;42289;53.582;9.714;2022-12-19T02:58:17;24.70;;;11.13;;
56391;SDS011;42289;53.582;9.714;2022-12-19T03:03:32;24.27;;;10.00;;
56391;SDS011;42289;53.582;9.714;2022-12-19T03:06:09;26.77;;;10.63;;
56391;SDS011;42289;53.582;9.714;2022-12-19T03:08:43;24.50;;;11.13;;
56391;SDS011;42289;53.582;9.714;2022-12-19T03:11:20;25.63;;;10.80;;
56391;SDS011;42289;53.582;9.714;2022-12-19T03:13:49;25.50;;;11.00;;
56391;SDS011;42289;53.582;9.714;2022-12-19T03:16:21;23.33;;;10.80;;
56391;SDS011;42289;53.582;9.714;2022-12-19T03:18:48;24.98;;;11.07;;
56391;SDS011;42289;53.582;9.714;2022-12-19T03:21:16;24.38;;;10.68;;
56391;SDS011;42289;53.582;9.714;2022-12-19T03:23:46;28.08;;;10.77;;
56391;SDS011;42289;53.582;9.714;2022-12-19T03:26:15;24.08;;;11.25;;
56391;SDS011;42289;53.582;9.714;2022-12-19T03:28:44;26.00;;;11.65;;
56391;SDS011;42289;53.582;9.714;2022-12-19T03:31:15;24.30;;;10.95;;
56391;SDS011;42289;53.582;9.714;2022-12-19T03:33:45;26.30;;;11.45;;
56391;SDS011;42289;53.582;9.714;2022-12-19T03:36:17;27.63;;;11.00;;
56391;SDS011;42289;53.582;9.714;2022-12-19T03:38:46;26.70;;;11.60;;
56391;SDS011;42289;53.582;9.714;2022-12-19T03:41:14;23.00;;;11.00;;
56391;SDS011;42289;53.582;9.714;2022-12-19T03:44:04;27.92;;;11.77;;
56391;SDS011;42289;53.582;9.714;2022-12-19T03:46:31;28.85;;;11.73;;
56391;SDS011;42289;53.582;9.714;2022-12-19T03:49:02;27.27;;;11.85;;
56391;SDS011;42289;53.582;9.714;2022-12-19T03:51:30;26.83;;;11.75;;
56391;SDS011;42289;53.582;9.714;2022-12-19T03:54:05;28.25;;;11.57;;
56391;SDS011;42289;53.582;9.714;2022-12-19T03:56:35;27.65;;;11.52;;
56391;SDS011;42289;53.582;9.714;2022-12-19T03:59:07;26.88;;;12.15;;
56391;SDS011;42289;53.582;9.714;2022-12-19T04:01:37;27.27;;;11.93;;
56391;SDS011;42289;53.582;9.714;2022-12-19T04:04:10;28.02;;;12.20;;
56391;SDS011;42289;53.582;9.714;2022-12-19T04:06:38;27.83;;;12.07;;
56391;SDS011;42289;53.582;9.714;2022-12-19T04:09:07;25.38;;;11.57;;
56391;SDS011;42289;53.582;9.714;2022-12-19T04:11:36;28.02;;;11.95;;
56391;SDS011;42289;53.582;9.714;2022-12-19T04:14:06;26.58;;;12.23;;
56391;SDS011;42289;53.582;9.714;2022-12-19T04:16:37;27.05;;;12.23;;
56391;SDS011;42289;53.582;9.714;2022-12-19T04:19:09;26.27;;;11.95;;
56391;SDS011;42289;53.582;9.714;2022-12-19T04:21:42;30.60;;;11.83;;
56391;SDS011;42289;53.582;9.714;2022-12-19T04:24:14;31.30;;;12.32;;
56391;SDS011;42289;53.582;9.714;2022-12-19T04:26:45;26.67;;;11.43;;
56391;SDS011;42289;53.582;9.714;2022-12-19T04:29:14;26.95;;;12.00;;
56391;SDS011;42289;53.582;9.714;2022-12-19T04:31:41;28.17;;;11.95;;
56391;SDS011;42289;53.582;9.714;2022-12-19T04:34:10;29.65;;;12.02;;
56391;SDS011;42289;53.582;9.714;2022-12-19T04:36:37;27.40;;;12.15;;
56391;SDS011;42289;53.582;9.714;2022-12-19T04:39:03;30.33;;;13.07;;
56391;SDS011;42289;53.582;9.714;2022-12-19T04:41:30;27.95;;;13.18;;
56391;SDS011;42289;53.582;9.714;2022-12-19T04:43:56;25.80;;;11.27;;
56391;SDS011;42289;53.582;9.714;2022-12-19T04:46:22;27.27;;;11.95;;
56391;SDS011;42289;53.582;9.714;2022-12-19T04:48:49;28.48;;;12.20;;
56391;SDS011;42289;53.582;9.714;2022-12-19T04:51:17;26.15;;;12.00;;
56391;SDS011;42289;53.582;9.714;2022-12-19T04:53:43;28.50;;;11.80;;
56391;SDS011;42289;53.582;9.714;2022-12-19T04:56:09;28.05;;;12.35;;
56391;SDS011;42289;53.582;9.714;2022-12-19T04:58:36;29.15;;;13.30;;
56391;SDS011;42289;53.582;9.714;2022-12-19T05:01:03;28.27;;;12.23;;
56391;SDS011;42289;53.582;9.714;2022-12-19T05:03:30;29.42;;;12.30;;
56391;SDS011;42289;53.582;9.714;2022-12-19T05:06:04;29.15;;;12.65;;
56391;SDS011;42289;53.582;9.714;2022-12-19T05:08:33;29.20;;;12.95;;
56391;SDS011;42289;53.582;9.714;2022-12-19T05:11:00;28.98;;;12.82;;
56391;SDS011;42289;53.582;9.714;2022-12-19T05:13:27;31.25;;;12.95;;
56391;SDS011;42289;53.582;9.714;2022-12-19T05:15:55;30.13;;;13.55;;
56391;SDS011;42289;53.582;9.714;2022-12-19T05:18:21;31.40;;;15.00;;
56391;SDS011;42289;53.582;9.714;2022-12-19T05:20:48;30.65;;;14.00;;
56391;SDS011;42289;53.582;9.714;2022-12-19T05:23:14;31.60;;;14.68;;
56391;SDS011;42289;53.582;9.714;2022-12-19T05:25:43;32.00;;;14.13;;
56391;SDS011;42289;53.582;9.714;2022-12-19T05:28:09;33.95;;;13.77;;
56391;SDS011;42289;53.582;9.714;2022-12-19T05:30:36;30.27;;;13.73;;
56391;SDS011;42289;53.582;9.714;2022-12-19T05:33:02;31.15;;;12.95;;
56391;SDS011;42289;53.582;9.714;2022-12-19T05:35:29;27.42;;;13.10;;
56391;SDS011;42289;53.582;9.714;2022-12-19T05:37:55;30.25;;;13.50;;
56391;SDS011;42289;53.582;9.714;2022-12-19T05:40:22;31.05;;;12.98;;
56391;SDS011;42289;53.582;9.714;2022-12-19T05:42:49;31.00;;;13.07;;
56391;SDS011;42289;53.582;9.714;2022-12-19T05:45:16;29.85;;;13.27;;
56391;SDS011;42289;53.582;9.714;2022-12-19T05:47:43;30.80;;;13.85;;
56391;SDS011;42289;53.582;9.714;2022-12-19T05:50:10;32.13;;;13.55;;
56391;SDS011;42289;53.582;9.714;2022-12-19T05:52:37;30.10;;;13.20;;
56391;SDS011;42289;53.582;9.714;2022-12-19T05:55:04;27.13;;;12.38;;
56391;SDS011;42289;53.582;9.714;2022-12-19T05:57:31;29.45;;;11.98;;
56391;SDS011;42289;53.582;9.714;2022-12-19T06:00:00;32.55;;;13.27;;
56391;SDS011;42289;53.582;9.714;2022-12-19T06:02:26;33.05;;;14.38;;
56391;SDS011;42289;53.582;9.714;2022-12-19T06:04:57;32.63;;;14.32;;
56391;SDS011;42289;53.582;9.714;2022-12-19T06:07:23;31.50;;;14.55;;
56391;SDS011;42289;53.582;9.714;2022-12-19T06:09:50;32.40;;;14.85;;
56391;SDS011;42289;53.582;9.714;2022-12-19T06:12:16;31.75;;;13.48;;
56391;SDS011;42289;53.582;9.714;2022-12-19T06:14:43;31.00;;;14.05;;
56391;SDS011;42289;53.582;9.714;2022-12-19T06:17:10;33.92;;;13.70;;
56391;SDS011;42289;53.582;9.714;2022-12-19T06:19:37;30.67;;;13.38;;
56391;SDS011;42289;53.582;9.714;2022-12-19T06:22:03;31.92;;;13.85;;
56391;SDS011;42289;53.582;9.714;2022-12-19T06:24:30;32.33;;;13.95;;
56391;SDS011;42289;53.582;9.714;2022-12-19T06:26:56;33.90;;;13.90;;
56391;SDS011;42289;53.582;9.714;2022-12-19T06:29:23;32.45;;;13.93;;
56391;SDS011;42289;53.582;9.714;2022-12-19T06:31:49;32.35;;;14.60;;
56391;SDS011;42289;53.582;9.714;2022-12-19T06:34:17;34.78;;;14.32;;
56391;SDS011;42289;53.582;9.714;2022-12-19T06:36:43;31.63;;;13.68;;
56391;SDS011;42289;53.582;9.714;2022-12-19T06:39:10;32.45;;;13.82;;
56391;SDS011;42289;53.582;9.714;2022-12-19T06:41:39;32.80;;;14.15;;
56391;SDS011;42289;53.582;9.714;2022-12-19T06:44:23;32.10;;;12.98;;
56391;SDS011;42289;53.582;9.714;2022-12-19T06:46:50;32.00;;;13.90;;
56391;SDS011;42289;53.582;9.714;2022-12-19T06:49:18;35.30;;;14.43;;
56391;SDS011;42289;53.582;9.714;2022-12-19T06:51:45;34.83;;;14.90;;
56391;SDS011;42289;53.582;9.714;2022-12-19T06:54:12;30.38;;;13.50;;
56391;SDS011;42289;53.582;9.714;2022-12-19T06:56:39;34.00;;;13.80;;
56391;SDS011;42289;53.582;9.714;2022-12-19T06:59:08;29.95;;;13.82;;
56391;SDS011;42289;53.582;9.714;2022-12-19T07:01:39;31.42;;;13.80;;
56391;SDS011;42289;53.582;9.714;2022-12-19T07:04:16;33.45;;;14.30;;
56391;SDS011;42289;53.582;9.714;2022-12-19T07:06:46;29.23;;;13.30;;
56391;SDS011;42289;53.582;9.714;2022-12-19T07:09:13;33.72;;;15.02;;
56391;SDS011;42289;53.582;9.714;2022-12-19T07:11:39;33.75;;;15.10;;
56391;SDS011;42289;53.582;9.714;2022-12-19T07:14:05;35.63;;;15.68;;
56391;SDS011;42289;53.582;9.714;2022-12-19T07:16:32;35.40;;;14.90;;
56391;SDS011;42289;53.582;9.714;2022-12-19T07:18:58;34.63;;;14.02;;
56391;SDS011;42289;53.582;9.714;2022-12-19T07:21:26;37.13;;;14.65;;
56391;SDS011;42289;53.582;9.714;2022-12-19T07:23:52;36.55;;;15.05;;
56391;SDS011;42289;53.582;9.714;2022-12-19T07:26:19;38.08;;;14.90;;
56391;SDS011;42289;53.582;9.714;2022-12-19T07:28:46;33.15;;;14.57;;
56391;SDS011;42289;53.582;9.714;2022-12-19T07:31:12;38.95;;;14.98;;
56391;SDS011;42289;53.582;9.714;2022-12-19T07:33:42;38.60;;;15.40;;
56391;SDS011;42289;53.582;9.714;2022-12-19T07:36:08;37.72;;;15.27;;
56391;SDS011;42289;53.582;9.714;2022-12-19T07:38:36;42.63;;;15.90;;
56391;SDS011;42289;53.582;9.714;2022-12-19T07:41:02;36.90;;;14.60;;
56391;SDS011;42289;53.582;9.714;2022-12-19T07:43:29;35.80;;;14.55;;
56391;SDS011;42289;53.582;9.714;2022-12-19T07:45:55;35.42;;;14.95;;
56391;SDS011;42289;53.582;9.714;2022-12-19T07:48:22;42.03;;;16.00;;
56391;SDS011;42289;53.582;9.714;2022-12-19T07:50:49;35.70;;;15.82;;
56391;SDS011;42289;53.582;9.714;2022-12-19T07:53:15;35.85;;;15.30;;
56391;SDS011;42289;53.582;9.714;2022-12-19T07:55:43;39.17;;;15.43;;
56391;SDS011;42289;53.582;9.714;2022-12-19T07:58:15;42.08;;;16.67;;
56391;SDS011;42289;53.582;9.714;2022-12-19T08:00:41;37.67;;;15.43;;
56391;SDS011;42289;53.582;9.714;2022-12-19T08:03:08;38.75;;;16.00;;
56391;SDS011;42289;53.582;9.714;2022-12-19T08:05:34;40.20;;;16.08;;
56391;SDS011;42289;53.582;9.714;2022-12-19T08:08:00;40.00;;;15.95;;
56391;SDS011;42289;53.582;9.714;2022-12-19T08:10:27;36.30;;;15.50;;
56391;SDS011;42289;53.582;9.714;2022-12-19T08:12:54;39.38;;;16.02;;
56391;SDS011;42289;53.582;9.714;2022-12-19T08:15:21;40.40;;;16.83;;
56391;SDS011;42289;53.582;9.714;2022-12-19T08:17:47;43.35;;;17.20;;
56391;SDS011;42289;53.582;9.714;2022-12-19T08:20:14;45.97;;;17.10;;
56391;SDS011;42289;53.582;9.714;2022-12-19T08:22:40;42.70;;;16.58;;
56391;SDS011;42289;53.582;9.714;2022-12-19T08:25:07;36.90;;;15.95;;
56391;SDS011;42289;53.582;9.714;2022-12-19T08:27:34;39.15;;;15.60;;
56391;SDS011;42289;53.582;9.714;2022-12-19T08:30:02;42.65;;;16.65;;
56391;SDS011;42289;53.582;9.714;2022-12-19T08:32:29;41.15;;;16.63;;
56391;SDS011;42289;53.582;9.714;2022-12-19T08:34:56;44.88;;;17.17;;
56391;SDS011;42289;53.582;9.714;2022-12-19T08:37:22;38.58;;;15.77;;
56391;SDS011;42289;53.582;9.714;2022-12-19T08:39:48;46.85;;;16.60;;
56391;SDS011;42289;53.582;9.714;2022-12-19T08:42:15;42.05;;;17.55;;
56391;SDS011;42289;53.582;9.714;2022-12-19T08:44:41;44.30;;;17.20;;
56391;SDS011;42289;53.582;9.714;2022-12-19T08:47:09;45.35;;;18.13;;
56391;SDS011;42289;53.582;9.714;2022-12-19T08:49:35;48.20;;;18.02;;
56391;SDS011;42289;53.582;9.714;2022-12-19T08:52:02;40.95;;;16.70;;
56391;SDS011;42289;53.582;9.714;2022-12-19T08:54:28;44.75;;;18.40;;
56391;SDS011;42289;53.582;9.714;2022-12-19T08:56:55;47.40;;;17.60;;
56391;SDS011;42289;53.582;9.714;2022-12-19T08:59:21;52.58;;;18.48;;
56391;SDS011;42289;53.582;9.714;2022-12-19T09:01:47;47.17;;;18.70;;
56391;SDS011;42289;53.582;9.714;2022-12-19T09:04:15;51.30;;;19.50;;
56391;SDS011;42289;53.582;9.714;2022-12-19T09:06:42;50.45;;;19.27;;
56391;SDS011;42289;53.582;9.714;2022-12-19T09:09:09;48.88;;;17.73;;
56391;SDS011;42289;53.582;9.714;2022-12-19T09:11:35;53.40;;;19.30;;
56391;SDS011;42289;53.582;9.714;2022-12-19T09:14:02;48.45;;;18.92;;
56391;SDS011;42289;53.582;9.714;2022-12-19T09:16:29;49.78;;;18.70;;
56391;SDS011;42289;53.582;9.714;2022-12-19T09:18:55;53.55;;;19.80;;
56391;SDS011;42289;53.582;9.714;2022-12-19T09:21:25;52.40;;;19.63;;
56391;SDS011;42289;53.582;9.714;2022-12-19T09:23:53;51.80;;;19.08;;
56391;SDS011;42289;53.582;9.714;2022-12-19T09:26:21;49.85;;;19.00;;
56391;SDS011;42289;53.582;9.714;2022-12-19T09:28:49;47.85;;;18.10;;
56391;SDS011;42289;53.582;9.714;2022-12-19T09:31:16;52.45;;;18.67;;
56391;SDS011;42289;53.582;9.714;2022-12-19T09:33:44;55.53;;;18.70;;
56391;SDS011;42289;53.582;9.714;2022-12-19T09:36:11;50.88;;;18.75;;
56391;SDS011;42289;53.582;9.714;2022-12-19T09:38:41;55.88;;;18.77;;
56391;SDS011;42289;53.582;9.714;2022-12-19T09:44:08;48.03;;;18.65;;
56391;SDS011;42289;53.582;9.714;2022-12-19T09:46:46;55.55;;;19.45;;
56391;SDS011;42289;53.582;9.714;2022-12-19T09:49:15;54.67;;;20.55;;
56391;SDS011;42289;53.582;9.714;2022-12-19T09:51:47;53.97;;;19.58;;
56391;SDS011;42289;53.582;9.714;2022-12-19T09:54:21;51.50;;;19.33;;
56391;SDS011;42289;53.582;9.714;2022-12-19T09:56:52;47.88;;;18.20;;
56391;SDS011;42289;53.582;9.714;2022-12-19T09:59:27;52.78;;;19.35;;
56391;SDS011;42289;53.582;9.714;2022-12-19T10:01:58;54.42;;;21.02;;
56391;SDS011;42289;53.582;9.714;2022-12-19T10:04:30;54.90;;;18.90;;
56391;SDS011;42289;53.582;9.714;2022-12-19T10:06:59;45.40;;;18.65;;
56391;SDS011;42289;53.582;9.714;2022-12-19T10:09:29;58.30;;;20.65;;
56391;SDS011;42289;53.582;9.714;2022-12-19T10:12:02;60.53;;;21.30;;
56391;SDS011;42289;53.582;9.714;2022-12-19T10:14:45;54.83;;;20.70;;
56391;SDS011;42289;53.582;9.714;2022-12-19T10:17:22;56.15;;;20.67;;
56391;SDS011;42289;53.582;9.714;2022-12-19T10:20:02;57.15;;;20.42;;
56391;SDS011;42289;53.582;9.714;2022-12-19T10:22:42;58.85;;;20.90;;
56391;SDS011;42289;53.582;9.714;2022-12-19T10:25:22;57.97;;;19.92;;
56391;SDS011;42289;53.582;9.714;2022-12-19T10:27:56;55.85;;;20.70;;
56391;SDS011;42289;53.582;9.714;2022-12-19T10:30:27;54.75;;;21.17;;
56391;SDS011;42289;53.582;9.714;2022-12-19T10:33:03;63.35;;;20.92;;
56391;SDS011;42289;53.582;9.714;2022-12-19T10:35:40;62.08;;;19.80;;
56391;SDS011;42289;53.582;9.714;2022-12-19T10:38:13;62.88;;;20.70;;
56391;SDS011;42289;53.582;9.714;2022-12-19T10:40:49;54.20;;;19.67;;
56391;SDS011;42289;53.582;9.714;2022-12-19T10:43:21;55.08;;;19.95;;
56391;SDS011;42289;53.582;9.714;2022-12-19T10:45:56;58.38;;;20.13;;
56391;SDS011;42289;53.582;9.714;2022-12-19T10:48:26;54.47;;;19.73;;
56391;SDS011;42289;53.582;9.714;2022-12-19T10:50:53;53.33;;;19.25;;
56391;SDS011;42289;53.582;9.714;2022-12-19T10:53:24;56.80;;;19.77;;
56391;SDS011;42289;53.582;9.714;2022-12-19T10:55:54;51.10;;;20.30;;
56391;SDS011;42289;53.582;9.714;2022-12-19T10:58:26;54.80;;;20.60;;
56391;SDS011;42289;53.582;9.714;2022-12-19T11:00:58;58.58;;;20.77;;
56391;SDS011;42289;53.582;9.714;2022-12-19T11:05:58;47.17;;;17.92;;
56391;SDS011;42289;53.582;9.714;2022-12-19T11:08:26;54.33;;;19.67;;
56391;SDS011;42289;53.582;9.714;2022-12-19T11:11:08;56.78;;;20.58;;
56391;SDS011;42289;53.582;9.714;2022-12-19T11:13:40;50.50;;;18.58;;
56391;SDS011;42289;53.582;9.714;2022-12-19T11:16:08;52.30;;;19.77;;
56391;SDS011;42289;53.582;9.714;2022-12-19T11:18:36;59.05;;;20.73;;
56391;SDS011;42289;53.582;9.714;2022-12-19T11:21:04;54.53;;;20.40;;
56391;SDS011;42289;53.582;9.714;2022-12-19T11:23:42;53.63;;;19.40;;
56391;SDS011;42289;53.582;9.714;2022-12-19T11:26:25;54.33;;;20.00;;
56391;SDS011;42289;53.582;9.714;2022-12-19T11:29:01;54.05;;;21.63;;
56391;SDS011;42289;53.582;9.714;2022-12-19T11:31:29;61.47;;;22.38;;
56391;SDS011;42289;53.582;9.714;2022-12-19T11:34:00;56.28;;;22.77;;
56391;SDS011;42289;53.582;9.714;2022-12-19T11:36:29;55.20;;;21.40;;
56391;SDS011;42289;53.582;9.714;2022-12-19T11:39:01;59.47;;;22.23;;
56391;SDS011;42289;53.582;9.714;2022-12-19T11:41:31;57.80;;;21.63;;
56391;SDS011;42289;53.582;9.714;2022-12-19T11:44:04;55.53;;;20.30;;
56391;SDS011;42289;53.582;9.714;2022-12-19T11:46:37;66.70;;;23.08;;
56391;SDS011;42289;53.582;9.714;2022-12-19T11:49:10;62.67;;;24.00;;
56391;SDS011;42289;53.582;9.714;2022-12-19T11:51:50;66.65;;;26.73;;
56391;SDS011;42289;53.582;9.714;2022-12-19T11:54:22;64.80;;;25.27;;
56391;SDS011;42289;53.582;9.714;2022-12-19T11:56:54;62.25;;;23.27;;
56391;SDS011;42289;53.582;9.714;2022-12-19T11:59:23;69.45;;;22.05;;
56391;SDS011;42289;53.582;9.714;2022-12-19T12:04:57;66.72;;;21.80;;
56391;SDS011;42289;53.582;9.714;2022-12-19T12:07:33;59.85;;;20.80;;
56391;SDS011;42289;53.582;9.714;2022-12-19T12:10:05;62.90;;;21.25;;
56391;SDS011;42289;53.582;9.714;2022-12-19T12:12:43;56.83;;;20.75;;
56391;SDS011;42289;53.582;9.714;2022-12-19T12:15:26;60.65;;;19.83;;
56391;SDS011;42289;53.582;9.714;2022-12-19T12:18:00;54.50;;;20.38;;
56391;SDS011;42289;53.582;9.714;2022-12-19T12:20:35;56.90;;;20.27;;
56391;SDS011;42289;53.582;9.714;2022-12-19T12:23:21;50.00;;;18.90;;
56391;SDS011;42289;53.582;9.714;2022-12-19T12:25:55;63.10;;;19.63;;
56391;SDS011;42289;53.582;9.714;2022-12-19T12:31:32;56.83;;;18.17;;
56391;SDS011;42289;53.582;9.714;2022-12-19T12:34:13;51.67;;;19.08;;
56391;SDS011;42289;53.582;9.714;2022-12-19T12:36:53;51.55;;;19.42;;
56391;SDS011;42289;53.582;9.714;2022-12-19T12:39:30;51.08;;;19.15;;
56391;SDS011;42289;53.582;9.714;2022-12-19T12:42:05;56.22;;;19.42;;
56391;SDS011;42289;53.582;9.714;2022-12-19T12:44:40;53.20;;;18.45;;
56391;SDS011;42289;53.582;9.714;2022-12-19T12:47:11;46.78;;;18.95;;
56391;SDS011;42289;53.582;9.714;2022-12-19T12:49:42;51.22;;;19.58;;
56391;SDS011;42289;53.582;9.714;2022-12-19T12:52:12;51.53;;;19.52;;
56391;SDS011;42289;53.582;9.714;2022-12-19T12:54:43;61.13;;;20.85;;
56391;SDS011;42289;53.582;9.714;2022-12-19T12:57:19;49.25;;;19.13;;
56391;SDS011;42289;53.582;9.714;2022-12-19T13:00:14;53.58;;;19.88;;
56391;SDS011;42289;53.582;9.714;2022-12-19T13:02:44;50.35;;;19.52;;
56391;SDS011;42289;53.582;9.714;2022-12-19T13:05:22;52.08;;;20.23;;
56391;SDS011;42289;53.582;9.714;2022-12-19T13:08:27;52.17;;;21.02;;
56391;SDS011;42289;53.582;9.714;2022-12-19T13:10:59;55.25;;;20.48;;
56391;SDS011;42289;53.582;9.714;2022-12-19T13:13:46;51.78;;;20.88;;
56391;SDS011;42289;53.582;9.714;2022-12-19T13:19:29;47.20;;;19.25;;
56391;SDS011;42289;53.582;9.714;2022-12-19T13:22:13;49.80;;;20.45;;
56391;SDS011;42289;53.582;9.714;2022-12-19T13:24:43;57.42;;;21.90;;
56391;SDS011;42289;53.582;9.714;2022-12-19T13:30:00;54.95;;;21.25;;
56391;SDS011;42289;53.582;9.714;2022-12-19T13:32:32;48.92;;;21.77;;
56391;SDS011;42289;53.582;9.714;2022-12-19T13:35:31;50.35;;;21.13;;
56391;SDS011;42289;53.582;9.714;2022-12-19T13:38:00;51.78;;;21.23;;
56391;SDS011;42289;53.582;9.714;2022-12-19T13:40:32;52.92;;;22.63;;
56391;SDS011;42289;53.582;9.714;2022-12-19T13:43:16;55.83;;;22.27;;
56391;SDS011;42289;53.582;9.714;2022-12-19T13:46:02;53.30;;;22.52;;
56391;SDS011;42289;53.582;9.714;2022-12-19T13:48:31;58.60;;;23.98;;
56391;SDS011;42289;53.582;9.714;2022-12-19T13:51:04;63.75;;;25.40;;
56391;SDS011;42289;53.582;9.714;2022-12-19T13:53:32;54.10;;;23.15;;
56391;SDS011;42289;53.582;9.714;2022-12-19T13:55:59;55.33;;;24.17;;
56391;SDS011;42289;53.582;9.714;2022-12-19T13:58:27;51.83;;;23.42;;
56391;SDS011;42289;53.582;9.714;2022-12-19T14:00:57;56.10;;;23.88;;
56391;SDS011;42289;53.582;9.714;2022-12-19T14:03:31;54.85;;;23.17;;
56391;SDS011;42289;53.582;9.714;2022-12-19T14:06:02;52.08;;;23.63;;
56391;SDS011;42289;53.582;9.714;2022-12-19T14:08:36;58.45;;;23.38;;
56391;SDS011;42289;53.582;9.714;2022-12-19T14:11:05;60.90;;;23.63;;
56391;SDS011;42289;53.582;9.714;2022-12-19T14:13:33;55.50;;;24.20;;
56391;SDS011;42289;53.582;9.714;2022-12-19T14:16:25;65.25;;;24.88;;
56391;SDS011;42289;53.582;9.714;2022-12-19T14:18:51;59.13;;;24.45;;
56391;SDS011;42289;53.582;9.714;2022-12-19T14:21:22;55.58;;;23.05;;
56391;SDS011;42289;53.582;9.714;2022-12-19T14:23:52;61.50;;;24.52;;
56391;SDS011;42289;53.582;9.714;2022-12-19T14:26:32;57.58;;;22.95;;
56391;SDS011;42289;53.582;9.714;2022-12-19T14:29:00;61.03;;;23.88;;
56391;SDS011;42289;53.582;9.714;2022-12-19T14:31:30;55.65;;;23.90;;
56391;SDS011;42289;53.582;9.714;2022-12-19T14:33:58;55.40;;;23.02;;
56391;SDS011;42289;53.582;9.714;2022-12-19T14:36:27;58.83;;;23.77;;
56391;SDS011;42289;53.582;9.714;2022-12-19T14:38:56;50.50;;;22.95;;
56391;SDS011;42289;53.582;9.714;2022-12-19T14:41:32;56.42;;;23.90;;
56391;SDS011;42289;53.582;9.714;2022-12-19T14:44:23;55.28;;;23.58;;
56391;SDS011;42289;53.582;9.714;2022-12-19T14:47:09;52.28;;;23.17;;
56391;SDS011;42289;53.582;9.714;2022-12-19T14:49:37;56.80;;;23.92;;
56391;SDS011;42289;53.582;9.714;2022-12-19T14:52:05;60.55;;;23.65;;
56391;SDS011;42289;53.582;9.714;2022-12-19T14:55:13;54.45;;;23.02;;
56391;SDS011;42289;53.582;9.714;2022-12-19T14:57:53;56.03;;;23.98;;
56391;SDS011;42289;53.582;9.714;2022-12-19T15:00:22;52.47;;;23.33;;
56391;SDS011;42289;53.582;9.714;2022-12-19T15:02:50;51.35;;;23.83;;